createdAt,value
2022-09-04T00:00:38.171Z,5.55
2022-09-04T00:03:10.625Z,5.72
2022-09-04T00:05:39.406Z,5.30
2022-09-04T00:08:18.980Z,6.03
2022-09-04T00:10:51.670Z,6.00
2022-09-04T00:13:20.794Z,6.70
2022-09-04T00:15:50.297Z,6.43
2022-09-04T00:18:21.380Z,6.38
2022-09-04T00:20:51.286Z,6.22
2022-09-04T00:23:20.618Z,5.90
2022-09-04T00:25:54.403Z,6.53
2022-09-04T00:28:30.599Z,6.55
2022-09-04T00:31:00.818Z,6.63
2022-09-04T00:33:36.465Z,6.93
2022-09-04T00:36:04.375Z,6.30
2022-09-04T00:38:45.681Z,6.22
2022-09-04T00:41:19.535Z,7.18
2022-09-04T00:43:56.845Z,7.45
2022-09-04T00:46:41.918Z,6.97
2022-09-04T00:49:21.440Z,6.72
2022-09-04T00:54:41.837Z,7.15
2022-09-04T00:57:23.946Z,7.60
2022-09-04T01:00:00.201Z,6.85
2022-09-04T01:02:32.564Z,7.25
2022-09-04T01:05:05.563Z,6.38
2022-09-04T01:07:41.566Z,6.05
2022-09-04T01:10:27.651Z,6.60
2022-09-04T01:12:57.733Z,6.03
2022-09-04T01:15:30.464Z,6.45
2022-09-04T01:18:03.081Z,6.38
2022-09-04T01:20:38.771Z,6.45
2022-09-04T01:23:19.489Z,6.30
2022-09-04T01:25:57.982Z,6.20
2022-09-04T01:28:28.615Z,5.60
2022-09-04T01:31:00.053Z,6.00
2022-09-04T01:33:32.980Z,5.95
2022-09-04T01:36:04.615Z,5.80
2022-09-04T01:38:36.143Z,6.25
2022-09-04T01:41:07.315Z,6.38
2022-09-04T01:43:34.959Z,6.38
2022-09-04T01:46:21.410Z,6.05
2022-09-04T01:48:52.550Z,7.00
2022-09-04T01:51:23.887Z,6.97
2022-09-04T01:53:56.570Z,6.47
2022-09-04T01:56:29.746Z,7.10
2022-09-04T01:59:00.363Z,6.35
2022-09-04T02:01:31.875Z,5.80
2022-09-04T02:04:04.366Z,7.18
2022-09-04T02:06:33.612Z,6.72
2022-09-04T02:09:06.432Z,6.13
2022-09-04T02:11:35.038Z,6.57
2022-09-04T02:14:08.800Z,6.03
2022-09-04T02:16:41.137Z,6.72
2022-09-04T02:19:12.418Z,6.95
2022-09-04T02:21:44.387Z,7.10
2022-09-04T02:24:15.916Z,7.90
2022-09-04T02:26:47.800Z,7.95
2022-09-04T02:29:17.695Z,7.15
2022-09-04T02:31:46.782Z,7.72
2022-09-04T02:34:16.865Z,8.00
2022-09-04T02:36:50.149Z,9.13
2022-09-04T02:39:22.797Z,8.20
2022-09-04T02:41:56.003Z,8.43
2022-09-04T02:44:28.294Z,8.65
2022-09-04T02:47:00.713Z,9.00
2022-09-04T02:49:33.412Z,8.23
2022-09-04T02:52:04.371Z,8.60
2022-09-04T02:54:39.590Z,8.35
2022-09-04T02:57:12.980Z,8.47
2022-09-04T02:59:43.738Z,8.40
2022-09-04T03:02:16.167Z,8.97
2022-09-04T03:04:46.127Z,8.30
2022-09-04T03:07:15.351Z,8.23
2022-09-04T03:09:46.015Z,8.30
2022-09-04T03:12:22.147Z,8.00
2022-09-04T03:14:52.224Z,8.07
2022-09-04T03:17:24.866Z,8.27
2022-09-04T03:19:54.292Z,8.83
2022-09-04T03:22:24.811Z,7.40
2022-09-04T03:25:02.533Z,7.40
2022-09-04T03:27:33.014Z,7.55
2022-09-04T03:30:03.527Z,7.60
2022-09-04T03:32:34.806Z,7.75
2022-09-04T03:35:07.549Z,7.77
2022-09-04T03:37:55.994Z,7.13
2022-09-04T03:40:27.790Z,8.27
2022-09-04T03:43:03.939Z,7.85
2022-09-04T03:45:36.968Z,7.83
2022-09-04T03:48:09.506Z,8.27
2022-09-04T03:50:42.815Z,7.43
2022-09-04T03:53:13.414Z,8.80
2022-09-04T03:55:50.114Z,7.73
2022-09-04T03:58:24.354Z,7.93
2022-09-04T04:00:55.978Z,7.43
2022-09-04T04:03:33.288Z,8.67
2022-09-04T04:06:06.887Z,8.23
2022-09-04T04:08:55.179Z,8.83
2022-09-04T04:11:30.683Z,8.73
2022-09-04T04:14:07.723Z,7.73
2022-09-04T04:16:39.684Z,8.73
2022-09-04T04:19:16.308Z,8.07
2022-09-04T04:21:50.923Z,8.50
2022-09-04T04:24:25.925Z,8.97
2022-09-04T04:26:59.251Z,8.50
2022-09-04T04:29:37.572Z,8.63
2022-09-04T04:32:12.160Z,8.70
2022-09-04T04:34:47.284Z,8.40
2022-09-04T04:37:19.946Z,8.10
2022-09-04T04:39:51.488Z,8.93
2022-09-04T04:42:23.101Z,9.47
2022-09-04T04:44:58.155Z,8.23
2022-09-04T04:47:33.391Z,8.50
2022-09-04T04:50:03.949Z,9.43
2022-09-04T04:52:36.651Z,8.90
2022-09-04T04:55:11.508Z,8.47
2022-09-04T04:57:45.279Z,8.63
2022-09-04T05:00:15.454Z,9.10
2022-09-04T05:02:47.085Z,9.23
2022-09-04T05:05:17.911Z,9.57
2022-09-04T05:07:50.507Z,10.83
2022-09-04T05:10:19.035Z,9.30
2022-09-04T05:12:54.472Z,8.50
2022-09-04T05:15:25.354Z,10.17
2022-09-04T05:17:54.954Z,11.23
2022-09-04T05:20:25.462Z,10.27
2022-09-04T05:22:57.334Z,10.97
2022-09-04T05:25:31.152Z,11.23
2022-09-04T05:28:03.811Z,10.40
2022-09-04T05:30:36.275Z,11.00
2022-09-04T05:33:15.144Z,12.10
2022-09-04T05:35:46.191Z,11.23
2022-09-04T05:38:16.954Z,11.00
2022-09-04T05:40:54.552Z,12.27
2022-09-04T05:43:29.310Z,11.03
2022-09-04T05:46:03.622Z,11.80
2022-09-04T05:48:33.085Z,12.33
2022-09-04T05:51:07.774Z,12.97
2022-09-04T05:54:00.892Z,10.10
2022-09-04T05:56:42.630Z,11.80
2022-09-04T05:59:18.516Z,11.90
2022-09-04T06:01:54.948Z,12.83
2022-09-04T06:04:36.887Z,14.03
2022-09-04T06:07:10.083Z,13.50
2022-09-04T06:09:46.803Z,14.00
2022-09-04T06:12:26.534Z,13.13
2022-09-04T06:15:00.419Z,13.23
2022-09-04T06:17:33.529Z,14.00
2022-09-04T06:20:15.225Z,13.07
2022-09-04T06:22:57.060Z,13.27
2022-09-04T06:25:32.420Z,13.60
2022-09-04T06:28:18.700Z,14.87
2022-09-04T06:30:49.426Z,12.90
2022-09-04T06:33:31.660Z,13.90
2022-09-04T06:36:20.269Z,14.33
2022-09-04T06:38:56.188Z,5.40
2022-09-04T06:41:32.883Z,15.33
2022-09-04T06:44:03.689Z,16.03
2022-09-04T06:46:36.533Z,11.03
2022-09-04T06:49:08.823Z,5.43
2022-09-04T06:51:44.183Z,10.50
2022-09-04T06:54:16.506Z,12.90
2022-09-04T06:57:02.488Z,14.60
2022-09-04T06:59:43.188Z,16.30
2022-09-04T07:02:15.527Z,14.57
2022-09-04T07:04:48.253Z,12.77
2022-09-04T07:07:19.110Z,16.77
2022-09-04T07:09:50.341Z,14.87
2022-09-04T07:12:30.912Z,13.70
2022-09-04T07:15:28.507Z,16.47
2022-09-04T07:18:01.652Z,16.60
2022-09-04T07:20:32.073Z,17.13
2022-09-04T07:23:05.390Z,12.17
2022-09-04T07:25:40.222Z,13.70
2022-09-04T07:28:22.438Z,16.87
2022-09-04T07:30:52.953Z,22.73
2022-09-04T07:33:24.004Z,18.87
2022-09-04T07:35:54.769Z,20.73
2022-09-04T07:38:24.695Z,17.27
2022-09-04T07:40:56.134Z,21.70
2022-09-04T07:43:28.517Z,29.73
2022-09-04T07:46:02.686Z,22.97
2022-09-04T07:48:31.612Z,25.97
2022-09-04T07:50:59.856Z,22.67
2022-09-04T07:53:35.557Z,26.23
2022-09-04T07:56:07.664Z,24.13
2022-09-04T07:58:48.787Z,26.97
2022-09-04T08:01:24.999Z,19.45
2022-09-04T08:04:02.587Z,24.50
2022-09-04T08:06:31.998Z,22.17
2022-09-04T08:09:10.522Z,24.73
2022-09-04T08:11:46.026Z,23.95
2022-09-04T08:14:33.721Z,22.63
2022-09-04T08:17:07.652Z,21.73
2022-09-04T08:19:39.286Z,27.85
2022-09-04T08:22:07.454Z,20.23
2022-09-04T08:24:54.795Z,24.85
2022-09-04T08:27:31.994Z,25.20
2022-09-04T08:30:06.636Z,42.83
2022-09-04T08:32:45.831Z,27.52
2022-09-04T08:35:18.275Z,35.45
2022-09-04T08:37:50.459Z,37.03
2022-09-04T08:40:46.198Z,27.05
2022-09-04T08:43:34.511Z,31.07
2022-09-04T08:46:28.782Z,31.75
2022-09-04T08:49:22.701Z,29.42
2022-09-04T08:52:00.147Z,40.85
2022-09-04T08:54:42.434Z,28.58
2022-09-04T08:57:20.934Z,33.75
2022-09-04T09:00:03.620Z,38.50
2022-09-04T09:02:42.630Z,28.55
2022-09-04T09:05:36.815Z,24.23
2022-09-04T09:08:14.403Z,25.33
2022-09-04T09:10:53.855Z,23.13
2022-09-04T09:13:32.850Z,20.30
2022-09-04T09:16:17.755Z,19.42
2022-09-04T09:18:57.582Z,28.55
2022-09-04T09:21:33.725Z,20.65
2022-09-04T09:24:11.905Z,21.45
2022-09-04T09:26:44.578Z,18.23
2022-09-04T09:29:32.740Z,27.83
2022-09-04T09:32:16.692Z,15.45
2022-09-04T09:35:16.938Z,18.90
2022-09-04T09:38:05.002Z,28.08
2022-09-04T09:40:42.341Z,15.93
2022-09-04T09:43:25.523Z,24.67
2022-09-04T09:46:08.877Z,15.10
2022-09-04T09:48:54.138Z,14.35
2022-09-04T09:51:39.550Z,9.95
2022-09-04T09:54:19.870Z,15.52
2022-09-04T09:56:54.261Z,12.65
2022-09-04T09:59:31.949Z,9.73
2022-09-04T10:02:19.087Z,8.65
2022-09-04T10:05:06.386Z,10.60
2022-09-04T10:08:00.116Z,8.05
2022-09-04T10:10:40.443Z,7.20
2022-09-04T10:13:20.160Z,10.27
2022-09-04T10:15:55.677Z,9.25
2022-09-04T10:18:47.147Z,12.93
2022-09-04T10:21:37.131Z,17.05
2022-09-04T10:24:18.438Z,15.73
2022-09-04T10:26:57.200Z,11.65
2022-09-04T10:29:33.331Z,8.95
2022-09-04T10:32:24.742Z,10.00
2022-09-04T10:35:08.540Z,12.13
2022-09-04T10:37:44.635Z,9.52
2022-09-04T10:40:18.751Z,10.77
2022-09-04T10:42:53.145Z,9.68
2022-09-04T10:45:25.799Z,6.38
2022-09-04T10:48:09.908Z,9.15
2022-09-04T10:50:52.134Z,7.78
2022-09-04T10:53:31.569Z,11.05
2022-09-04T10:56:08.967Z,7.82
2022-09-04T10:58:54.232Z,13.32
2022-09-04T11:01:36.621Z,9.00
2022-09-04T11:04:11.981Z,9.10
2022-09-04T11:06:58.750Z,9.55
2022-09-04T11:09:31.792Z,8.48
2022-09-04T11:12:09.854Z,10.77
2022-09-04T11:14:58.605Z,7.70
2022-09-04T11:17:40.920Z,8.32
2022-09-04T11:20:18.532Z,14.90
2022-09-04T11:23:09.866Z,9.45
2022-09-04T11:25:49.690Z,13.45
2022-09-04T11:28:35.443Z,10.50
2022-09-04T11:31:09.085Z,10.75
2022-09-04T11:33:53.361Z,6.72
2022-09-04T11:36:31.131Z,5.90
2022-09-04T11:39:11.326Z,7.65
2022-09-04T11:41:58.144Z,5.85
2022-09-04T11:44:43.392Z,6.63
2022-09-04T11:47:31.738Z,7.05
2022-09-04T11:50:14.636Z,8.07
2022-09-04T11:52:56.818Z,16.17
2022-09-04T11:55:29.583Z,7.45
2022-09-04T11:58:04.111Z,12.98
2022-09-04T12:00:32.898Z,13.30
2022-09-04T12:03:18.684Z,14.82
2022-09-04T12:06:03.991Z,14.63
2022-09-04T12:08:42.227Z,9.30
2022-09-04T12:11:24.413Z,11.52
2022-09-04T12:14:01.138Z,9.65
2022-09-04T12:16:47.880Z,5.93
2022-09-04T12:19:33.187Z,11.10
2022-09-04T12:22:29.156Z,9.35
2022-09-04T12:25:15.163Z,9.00
2022-09-04T12:27:53.938Z,11.38
2022-09-04T12:30:22.783Z,9.27
2022-09-04T12:33:08.902Z,7.57
2022-09-04T12:35:45.341Z,7.30
2022-09-04T12:38:22.576Z,7.78
2022-09-04T12:43:56.203Z,5.05
2022-09-04T12:46:34.493Z,5.40
2022-09-04T12:49:08.911Z,5.65
2022-09-04T12:51:39.471Z,5.72
2022-09-04T12:54:14.058Z,4.80
2022-09-04T12:56:49.133Z,4.35
2022-09-04T12:59:28.503Z,4.32
2022-09-04T13:02:02.026Z,4.80
2022-09-04T13:04:33.843Z,5.57
2022-09-04T13:07:16.120Z,6.47
2022-09-04T13:09:53.636Z,10.48
2022-09-04T13:12:25.742Z,15.38
2022-09-04T13:15:10.923Z,13.60
2022-09-04T13:17:45.488Z,11.75
2022-09-04T13:20:18.048Z,4.75
2022-09-04T13:22:51.947Z,5.65
2022-09-04T13:25:29.846Z,13.15
2022-09-04T13:28:03.592Z,15.15
2022-09-04T13:30:46.769Z,7.43
2022-09-04T13:33:20.819Z,10.75
2022-09-04T13:36:06.026Z,9.77
2022-09-04T13:38:48.172Z,11.20
2022-09-04T13:41:25.311Z,10.98
2022-09-04T13:44:09.020Z,11.55
2022-09-04T13:46:39.278Z,11.15
2022-09-04T13:49:11.591Z,7.60
2022-09-04T13:51:41.006Z,6.18
2022-09-04T13:54:11.771Z,8.27
2022-09-04T13:56:57.923Z,6.30
2022-09-04T13:59:38.629Z,6.25
2022-09-04T14:02:09.339Z,6.65
2022-09-04T14:04:41.351Z,7.00
2022-09-04T14:07:12.452Z,6.13
2022-09-04T14:09:43.141Z,8.32
2022-09-04T14:12:13.167Z,5.85
2022-09-04T14:14:55.295Z,6.00
2022-09-04T14:17:26.581Z,5.32
2022-09-04T14:19:59.316Z,4.45
2022-09-04T14:22:33.691Z,6.15
2022-09-04T14:25:11.945Z,7.03
2022-09-04T14:27:43.022Z,7.22
2022-09-04T14:30:15.008Z,7.10
2022-09-04T14:32:50.466Z,5.53
2022-09-04T14:35:23.794Z,6.95
2022-09-04T14:37:58.528Z,6.40
2022-09-04T14:40:29.524Z,7.63
2022-09-04T14:43:01.882Z,3.78
2022-09-04T14:45:34.290Z,6.30
2022-09-04T14:48:02.343Z,6.03
2022-09-04T14:50:32.235Z,5.90
2022-09-04T14:53:00.619Z,4.72
2022-09-04T14:55:34.776Z,5.68
2022-09-04T14:58:05.972Z,6.15
2022-09-04T15:00:35.040Z,5.03
2022-09-04T15:03:07.020Z,4.97
2022-09-04T15:05:37.702Z,4.40
2022-09-04T15:08:07.015Z,4.30
2022-09-04T15:10:36.546Z,4.78
2022-09-04T15:13:21.764Z,4.65
2022-09-04T15:15:51.460Z,5.28
2022-09-04T15:18:23.968Z,7.40
2022-09-04T15:20:55.545Z,6.22
2022-09-04T15:23:24.371Z,5.22
2022-09-04T15:25:59.715Z,5.35
2022-09-04T15:28:29.865Z,4.78
2022-09-04T15:31:03.484Z,6.32
2022-09-04T15:33:31.028Z,4.38
2022-09-04T15:36:05.113Z,4.57
2022-09-04T15:38:32.972Z,3.78
2022-09-04T15:41:16.550Z,4.28
2022-09-04T15:43:47.451Z,5.72
2022-09-04T15:46:20.822Z,4.57
2022-09-04T15:48:50.066Z,4.43
2022-09-04T15:51:21.531Z,4.57
2022-09-04T15:53:53.030Z,4.88
2022-09-04T15:56:31.603Z,5.25
2022-09-04T15:59:03.140Z,3.97
2022-09-04T16:01:33.156Z,3.72
2022-09-04T16:04:04.035Z,4.30
2022-09-04T16:06:37.622Z,4.38
2022-09-04T16:09:08.831Z,4.70
2022-09-04T16:11:37.332Z,4.50
2022-09-04T16:14:06.031Z,4.93
2022-09-04T16:16:37.040Z,4.28
2022-09-04T16:19:10.703Z,4.57
2022-09-04T16:21:42.508Z,4.95
2022-09-04T16:24:13.663Z,5.07
2022-09-04T16:26:41.014Z,4.32
2022-09-04T16:29:10.947Z,6.00
2022-09-04T16:31:38.625Z,4.80
2022-09-04T16:34:12.320Z,4.90
2022-09-04T16:36:42.242Z,4.03
2022-09-04T16:39:13.864Z,5.63
2022-09-04T16:41:43.861Z,6.90
2022-09-04T16:44:15.239Z,7.18
2022-09-04T16:46:48.277Z,4.57
2022-09-04T16:49:21.318Z,4.05
2022-09-04T16:51:56.708Z,6.40
2022-09-04T16:54:28.995Z,10.00
2022-09-04T16:57:12.892Z,6.53
2022-09-04T16:59:42.303Z,4.80
2022-09-04T17:02:17.566Z,6.80
2022-09-04T17:04:47.992Z,4.72
2022-09-04T17:07:19.032Z,6.05
2022-09-04T17:10:04.069Z,5.95
2022-09-04T17:12:37.457Z,5.28
2022-09-04T17:15:08.905Z,6.85
2022-09-04T17:17:41.398Z,5.50
2022-09-04T17:20:10.198Z,5.97
2022-09-04T17:28:56.730Z,6.07
2022-09-04T17:29:09.741Z,5.85
2022-09-04T17:31:11.525Z,7.55
2022-09-04T17:38:24.316Z,6.40
2022-09-04T17:40:39.103Z,6.07
2022-09-04T17:40:57.398Z,6.15
2022-09-04T17:42:15.683Z,5.30
2022-09-04T17:44:45.561Z,5.60
2022-09-04T17:47:19.013Z,5.90
2022-09-04T17:49:54.110Z,5.75
2022-09-04T17:52:23.100Z,6.13
2022-09-04T17:54:52.186Z,6.47
2022-09-04T17:57:23.470Z,8.13
2022-09-04T17:59:56.171Z,7.68
2022-09-04T18:02:27.213Z,7.75
2022-09-04T18:05:13.928Z,7.00
2022-09-04T18:08:09.712Z,6.65
2022-09-04T18:10:40.252Z,9.27
2022-09-04T18:20:08.922Z,5.70
2022-09-04T18:22:51.201Z,5.65
2022-09-04T18:25:20.303Z,5.50
2022-09-04T18:28:06.359Z,5.43
2022-09-04T18:37:05.258Z,5.25
2022-09-04T18:37:18.979Z,5.20
2022-09-04T18:37:22.450Z,5.53
2022-09-04T18:39:25.802Z,6.07
2022-09-04T18:50:24.772Z,5.93
2022-09-04T18:50:25.844Z,6.13
2022-09-04T18:50:44.415Z,7.03
2022-09-04T18:53:35.903Z,6.85
2022-09-04T18:56:06.295Z,7.95
2022-09-04T18:58:53.966Z,7.32
2022-09-04T19:01:27.387Z,7.35
2022-09-04T19:03:56.416Z,7.80
2022-09-04T19:06:31.566Z,7.47
2022-09-04T19:09:01.561Z,8.38
2022-09-04T19:11:31.787Z,8.10
2022-09-04T19:14:10.329Z,7.95
2022-09-04T19:16:42.176Z,7.53
2022-09-04T19:19:17.810Z,7.88
2022-09-04T19:21:58.142Z,9.25
2022-09-04T19:24:34.265Z,7.28
2022-09-04T19:27:26.975Z,7.55
2022-09-04T19:30:13.999Z,7.65
2022-09-04T19:32:54.128Z,8.40
2022-09-04T19:35:25.077Z,8.68
2022-09-04T19:41:42.967Z,8.60
2022-09-04T19:46:07.511Z,9.45
2022-09-04T19:46:11.591Z,9.13
2022-09-04T19:46:43.002Z,9.13
2022-09-04T19:50:34.097Z,9.57
2022-09-04T19:53:31.150Z,9.75
2022-09-04T19:55:24.694Z,10.57
2022-09-04T19:57:46.063Z,9.88
2022-09-04T20:00:33.702Z,11.38
2022-09-04T20:03:09.331Z,10.40
2022-09-04T20:05:40.035Z,10.43
2022-09-04T20:08:10.562Z,10.40
2022-09-04T20:10:39.327Z,11.07
2022-09-04T20:13:15.271Z,12.55
2022-09-04T20:15:44.489Z,11.82
2022-09-04T20:18:16.367Z,11.73
2022-09-04T20:20:48.340Z,12.30
2022-09-04T20:23:33.865Z,13.90
2022-09-04T20:26:07.331Z,13.15
2022-09-04T20:28:40.408Z,13.02
2022-09-04T20:31:35.963Z,12.95
2022-09-04T20:34:09.560Z,12.02
2022-09-04T20:36:41.019Z,11.70
2022-09-04T20:39:19.468Z,12.10
2022-09-04T20:41:49.607Z,12.48
2022-09-04T20:44:19.831Z,13.50
2022-09-04T20:52:45.382Z,12.10
2022-09-04T20:52:50.477Z,11.88
2022-09-04T20:53:07.572Z,13.93
2022-09-04T20:55:34.923Z,13.32
2022-09-04T21:03:14.935Z,12.88
2022-09-04T21:03:20.595Z,13.27
2022-09-04T21:04:01.768Z,11.85
2022-09-04T21:06:32.507Z,12.18
2022-09-04T21:09:14.611Z,12.65
2022-09-04T21:11:45.346Z,13.32
2022-09-04T21:14:14.672Z,11.30
2022-09-04T21:16:49.802Z,12.73
2022-09-04T21:19:29.886Z,12.80
2022-09-04T21:22:24.498Z,13.52
2022-09-04T21:25:27.670Z,13.82
2022-09-04T21:28:12.624Z,13.82
2022-09-04T21:30:50.817Z,11.82
2022-09-04T21:33:27.786Z,12.88
2022-09-04T21:36:05.784Z,12.50
2022-09-04T21:38:57.225Z,13.57
2022-09-04T21:41:31.282Z,14.10
2022-09-04T21:44:24.360Z,12.88
2022-09-04T21:46:58.589Z,12.98
2022-09-04T21:49:33.900Z,13.90
2022-09-04T21:52:16.056Z,13.55
2022-09-04T21:56:00.745Z,13.20
2022-09-04T22:02:31.070Z,12.57
2022-09-04T22:02:48.470Z,12.85
2022-09-04T22:03:55.907Z,11.85
2022-09-04T22:08:51.162Z,12.07
2022-09-04T22:13:27.176Z,10.98
2022-09-04T22:13:39.703Z,12.05
2022-09-04T22:14:59.615Z,11.82
2022-09-04T22:17:35.801Z,10.48
2022-09-04T22:20:11.474Z,10.57
2022-09-04T22:22:53.592Z,9.82
2022-09-04T22:25:38.119Z,9.70
2022-09-04T22:28:23.134Z,9.40
2022-09-04T22:31:01.284Z,9.45
2022-09-04T22:34:14.401Z,8.98
2022-09-04T22:36:35.840Z,8.02
2022-09-04T22:39:16.365Z,7.30
2022-09-04T22:41:57.948Z,6.18
2022-09-04T22:44:33.595Z,6.55
2022-09-04T22:47:15.700Z,6.95
2022-09-04T22:49:55.549Z,6.20
2022-09-04T22:52:38.991Z,5.90
2022-09-04T22:55:39.595Z,6.25
2022-09-04T22:58:15.766Z,5.80
2022-09-04T23:00:49.194Z,5.85
2022-09-04T23:03:26.011Z,4.93
2022-09-04T23:07:35.379Z,5.82
2022-09-04T23:13:43.532Z,4.38
2022-09-04T23:14:00.695Z,4.25
2022-09-04T23:14:49.960Z,4.10
2022-09-04T23:17:29.481Z,4.63
2022-09-04T23:26:30.883Z,3.80
2022-09-04T23:26:42.364Z,4.20
2022-09-04T23:26:48.653Z,4.30
2022-09-04T23:28:55.685Z,3.78
2022-09-04T23:31:37.191Z,4.75
2022-09-04T23:34:16.939Z,4.10
2022-09-04T23:37:07.868Z,3.75
2022-09-04T23:39:43.502Z,3.20
2022-09-04T23:42:24.039Z,3.63
2022-09-04T23:44:57.429Z,3.80
2022-09-04T23:47:47.040Z,3.22
2022-09-04T23:50:22.392Z,3.10
2022-09-04T23:52:54.011Z,3.13
2022-09-04T23:55:26.230Z,3.17
2022-09-04T23:58:13.390Z,3.28
